sensor_id;sensor_type;location;lat;lon;timestamp;P1;durP1;ratioP1;P2;durP2;ratioP2
74894;SDS011;63447;49.446;8.666;2023-01-29T00:01:48;10.23;;;4.88;;
74894;SDS011;63447;49.446;8.666;2023-01-29T00:04:14;13.02;;;6.38;;
74894;SDS011;63447;49.446;8.666;2023-01-29T00:06:39;8.10;;;4.57;;
74894;SDS011;63447;49.446;8.666;2023-01-29T00:09:07;10.75;;;5.28;;
74894;SDS011;63447;49.446;8.666;2023-01-29T00:11:32;7.87;;;4.07;;
74894;SDS011;63447;49.446;8.666;2023-01-29T00:14:00;6.13;;;3.22;;
74894;SDS011;63447;49.446;8.666;2023-01-29T00:16:28;5.97;;;3.38;;
74894;SDS011;63447;49.446;8.666;2023-01-29T00:18:53;7.07;;;4.07;;
74894;SDS011;63447;49.446;8.666;2023-01-29T00:21:21;7.72;;;4.32;;
74894;SDS011;63447;49.446;8.666;2023-01-29T00:23:47;7.50;;;4.20;;
74894;SDS011;63447;49.446;8.666;2023-01-29T00:26:13;8.75;;;4.35;;
74894;SDS011;63447;49.446;8.666;2023-01-29T00:28:39;9.27;;;4.55;;
74894;SDS011;63447;49.446;8.666;2023-01-29T00:31:05;8.13;;;4.20;;
74894;SDS011;63447;49.446;8.666;2023-01-29T00:33:35;7.05;;;4.10;;
74894;SDS011;63447;49.446;8.666;2023-01-29T00:36:04;7.88;;;4.25;;
74894;SDS011;63447;49.446;8.666;2023-01-29T00:38:31;10.32;;;5.68;;
74894;SDS011;63447;49.446;8.666;2023-01-29T00:43:49;8.30;;;4.65;;
74894;SDS011;63447;49.446;8.666;2023-01-29T00:46:33;8.20;;;3.92;;
74894;SDS011;63447;49.446;8.666;2023-01-29T00:49:01;8.23;;;4.18;;
74894;SDS011;63447;49.446;8.666;2023-01-29T00:51:29;5.55;;;2.95;;
74894;SDS011;63447;49.446;8.666;2023-01-29T00:53:54;7.32;;;3.63;;
74894;SDS011;63447;49.446;8.666;2023-01-29T00:56:22;7.55;;;3.90;;
74894;SDS011;63447;49.446;8.666;2023-01-29T00:58:49;7.43;;;4.28;;
74894;SDS011;63447;49.446;8.666;2023-01-29T01:01:16;7.22;;;3.65;;
74894;SDS011;63447;49.446;8.666;2023-01-29T01:04:02;6.82;;;3.55;;
74894;SDS011;63447;49.446;8.666;2023-01-29T01:06:27;8.43;;;4.40;;
74894;SDS011;63447;49.446;8.666;2023-01-29T01:08:52;7.30;;;4.13;;
74894;SDS011;63447;49.446;8.666;2023-01-29T01:11:39;7.47;;;4.40;;
74894;SDS011;63447;49.446;8.666;2023-01-29T01:14:04;7.00;;;3.77;;
74894;SDS011;63447;49.446;8.666;2023-01-29T01:16:29;6.40;;;3.77;;
74894;SDS011;63447;49.446;8.666;2023-01-29T01:18:55;7.95;;;3.90;;
74894;SDS011;63447;49.446;8.666;2023-01-29T01:21:22;7.55;;;3.47;;
74894;SDS011;63447;49.446;8.666;2023-01-29T01:23:50;7.47;;;3.97;;
74894;SDS011;63447;49.446;8.666;2023-01-29T01:26:16;7.75;;;3.70;;
74894;SDS011;63447;49.446;8.666;2023-01-29T01:28:42;7.50;;;3.78;;
74894;SDS011;63447;49.446;8.666;2023-01-29T01:31:11;7.40;;;3.78;;
74894;SDS011;63447;49.446;8.666;2023-01-29T01:33:37;6.65;;;3.85;;
74894;SDS011;63447;49.446;8.666;2023-01-29T01:36:03;6.28;;;3.83;;
74894;SDS011;63447;49.446;8.666;2023-01-29T01:38:33;7.68;;;3.67;;
74894;SDS011;63447;49.446;8.666;2023-01-29T01:41:08;7.53;;;3.72;;
74894;SDS011;63447;49.446;8.666;2023-01-29T01:43:52;7.15;;;3.67;;
74894;SDS011;63447;49.446;8.666;2023-01-29T01:46:24;7.70;;;3.83;;
74894;SDS011;63447;49.446;8.666;2023-01-29T01:48:56;7.20;;;4.00;;
74894;SDS011;63447;49.446;8.666;2023-01-29T01:51:27;7.38;;;4.03;;
74894;SDS011;63447;49.446;8.666;2023-01-29T01:54:00;7.10;;;4.05;;
74894;SDS011;63447;49.446;8.666;2023-01-29T01:56:31;6.43;;;3.28;;
74894;SDS011;63447;49.446;8.666;2023-01-29T01:59:02;7.47;;;3.92;;
74894;SDS011;63447;49.446;8.666;2023-01-29T02:01:31;6.88;;;3.78;;
74894;SDS011;63447;49.446;8.666;2023-01-29T02:04:06;7.72;;;3.78;;
74894;SDS011;63447;49.446;8.666;2023-01-29T02:06:53;7.90;;;4.10;;
74894;SDS011;63447;49.446;8.666;2023-01-29T02:09:43;7.28;;;4.20;;
74894;SDS011;63447;49.446;8.666;2023-01-29T02:12:18;8.75;;;4.03;;
74894;SDS011;63447;49.446;8.666;2023-01-29T02:14:49;9.10;;;3.90;;
74894;SDS011;63447;49.446;8.666;2023-01-29T02:17:16;7.38;;;3.70;;
74894;SDS011;63447;49.446;8.666;2023-01-29T02:29:49;7.00;;;3.67;;
74894;SDS011;63447;49.446;8.666;2023-01-29T02:35:33;7.43;;;4.13;;
74894;SDS011;63447;49.446;8.666;2023-01-29T02:46:26;6.50;;;3.63;;
74894;SDS011;63447;49.446;8.666;2023-01-29T02:49:00;6.07;;;3.38;;
74894;SDS011;63447;49.446;8.666;2023-01-29T02:51:43;6.60;;;3.90;;
74894;SDS011;63447;49.446;8.666;2023-01-29T02:54:24;5.65;;;3.08;;
74894;SDS011;63447;49.446;8.666;2023-01-29T02:57:12;7.13;;;3.45;;
74894;SDS011;63447;49.446;8.666;2023-01-29T03:00:06;6.32;;;3.33;;
74894;SDS011;63447;49.446;8.666;2023-01-29T03:05:03;7.28;;;3.83;;
74894;SDS011;63447;49.446;8.666;2023-01-29T03:07:37;7.28;;;3.80;;
74894;SDS011;63447;49.446;8.666;2023-01-29T03:12:52;9.73;;;4.68;;
74894;SDS011;63447;49.446;8.666;2023-01-29T03:15:34;7.43;;;4.22;;
74894;SDS011;63447;49.446;8.666;2023-01-29T03:20:42;6.88;;;3.92;;
74894;SDS011;63447;49.446;8.666;2023-01-29T03:23:18;7.85;;;3.70;;
74894;SDS011;63447;49.446;8.666;2023-01-29T03:25:51;7.05;;;3.92;;
74894;SDS011;63447;49.446;8.666;2023-01-29T03:28:41;6.70;;;3.72;;
74894;SDS011;63447;49.446;8.666;2023-01-29T03:31:28;7.93;;;3.97;;
74894;SDS011;63447;49.446;8.666;2023-01-29T03:34:16;7.13;;;3.67;;
74894;SDS011;63447;49.446;8.666;2023-01-29T03:39:26;6.90;;;3.60;;
74894;SDS011;63447;49.446;8.666;2023-01-29T04:00:35;8.45;;;4.20;;
74894;SDS011;63447;49.446;8.666;2023-01-29T04:03:17;8.77;;;4.18;;
74894;SDS011;63447;49.446;8.666;2023-01-29T04:05:51;8.60;;;4.20;;
74894;SDS011;63447;49.446;8.666;2023-01-29T04:08:29;7.63;;;3.50;;
74894;SDS011;63447;49.446;8.666;2023-01-29T04:11:02;7.40;;;4.18;;
74894;SDS011;63447;49.446;8.666;2023-01-29T04:13:33;10.88;;;5.25;;
74894;SDS011;63447;49.446;8.666;2023-01-29T04:16:00;7.43;;;3.92;;
74894;SDS011;63447;49.446;8.666;2023-01-29T04:18:31;8.02;;;3.97;;
74894;SDS011;63447;49.446;8.666;2023-01-29T04:20:59;5.93;;;3.42;;
74894;SDS011;63447;49.446;8.666;2023-01-29T04:23:25;8.38;;;3.90;;
74894;SDS011;63447;49.446;8.666;2023-01-29T04:26:03;9.07;;;4.00;;
74894;SDS011;63447;49.446;8.666;2023-01-29T04:31:14;7.95;;;3.80;;
74894;SDS011;63447;49.446;8.666;2023-01-29T04:36:33;6.22;;;3.35;;
74894;SDS011;63447;49.446;8.666;2023-01-29T04:39:19;6.38;;;3.80;;
74894;SDS011;63447;49.446;8.666;2023-01-29T04:56:02;5.47;;;3.15;;
74894;SDS011;63447;49.446;8.666;2023-01-29T05:01:06;6.95;;;3.28;;
74894;SDS011;63447;49.446;8.666;2023-01-29T05:03:38;6.03;;;3.17;;
74894;SDS011;63447;49.446;8.666;2023-01-29T05:06:06;6.72;;;3.55;;
74894;SDS011;63447;49.446;8.666;2023-01-29T05:08:38;8.57;;;3.30;;
74894;SDS011;63447;49.446;8.666;2023-01-29T05:11:05;6.00;;;3.25;;
74894;SDS011;63447;49.446;8.666;2023-01-29T05:13:33;6.95;;;3.42;;
74894;SDS011;63447;49.446;8.666;2023-01-29T05:16:07;7.28;;;3.65;;
74894;SDS011;63447;49.446;8.666;2023-01-29T05:18:38;6.03;;;3.50;;
74894;SDS011;63447;49.446;8.666;2023-01-29T05:21:08;6.10;;;3.15;;
74894;SDS011;63447;49.446;8.666;2023-01-29T05:23:34;7.10;;;3.38;;
74894;SDS011;63447;49.446;8.666;2023-01-29T05:26:02;7.72;;;3.85;;
74894;SDS011;63447;49.446;8.666;2023-01-29T05:28:28;8.90;;;4.40;;
74894;SDS011;63447;49.446;8.666;2023-01-29T05:30:54;7.53;;;3.70;;
74894;SDS011;63447;49.446;8.666;2023-01-29T05:33:27;7.55;;;3.65;;
74894;SDS011;63447;49.446;8.666;2023-01-29T05:35:59;7.03;;;3.33;;
74894;SDS011;63447;49.446;8.666;2023-01-29T05:38:30;5.60;;;3.30;;
74894;SDS011;63447;49.446;8.666;2023-01-29T05:40:58;7.10;;;3.47;;
74894;SDS011;63447;49.446;8.666;2023-01-29T05:43:28;7.15;;;3.20;;
74894;SDS011;63447;49.446;8.666;2023-01-29T05:46:01;6.18;;;3.03;;
74894;SDS011;63447;49.446;8.666;2023-01-29T05:48:27;7.15;;;3.70;;
74894;SDS011;63447;49.446;8.666;2023-01-29T05:50:53;7.50;;;4.40;;
74894;SDS011;63447;49.446;8.666;2023-01-29T05:53:24;8.05;;;3.88;;
74894;SDS011;63447;49.446;8.666;2023-01-29T05:55:51;8.05;;;4.25;;
74894;SDS011;63447;49.446;8.666;2023-01-29T05:58:24;6.90;;;3.97;;
74894;SDS011;63447;49.446;8.666;2023-01-29T06:00:49;7.88;;;3.78;;
74894;SDS011;63447;49.446;8.666;2023-01-29T06:03:17;7.97;;;4.40;;
74894;SDS011;63447;49.446;8.666;2023-01-29T06:05:45;6.25;;;3.72;;
74894;SDS011;63447;49.446;8.666;2023-01-29T06:08:15;7.20;;;3.90;;
74894;SDS011;63447;49.446;8.666;2023-01-29T06:10:43;7.07;;;3.80;;
74894;SDS011;63447;49.446;8.666;2023-01-29T06:13:10;6.72;;;3.78;;
74894;SDS011;63447;49.446;8.666;2023-01-29T06:15:37;7.65;;;3.67;;
74894;SDS011;63447;49.446;8.666;2023-01-29T06:18:08;6.93;;;3.33;;
74894;SDS011;63447;49.446;8.666;2023-01-29T06:20:38;7.40;;;4.10;;
74894;SDS011;63447;49.446;8.666;2023-01-29T06:23:06;6.75;;;3.47;;
74894;SDS011;63447;49.446;8.666;2023-01-29T06:25:31;7.80;;;4.60;;
74894;SDS011;63447;49.446;8.666;2023-01-29T06:27:59;8.38;;;4.18;;
74894;SDS011;63447;49.446;8.666;2023-01-29T06:30:32;7.13;;;3.95;;
74894;SDS011;63447;49.446;8.666;2023-01-29T06:32:58;7.55;;;4.03;;
74894;SDS011;63447;49.446;8.666;2023-01-29T06:35:25;8.77;;;4.40;;
74894;SDS011;63447;49.446;8.666;2023-01-29T06:37:51;8.63;;;4.28;;
74894;SDS011;63447;49.446;8.666;2023-01-29T06:40:16;9.33;;;4.83;;
74894;SDS011;63447;49.446;8.666;2023-01-29T06:42:41;12.07;;;5.53;;
74894;SDS011;63447;49.446;8.666;2023-01-29T06:45:07;10.73;;;5.63;;
74894;SDS011;63447;49.446;8.666;2023-01-29T06:47:33;10.40;;;4.82;;
74894;SDS011;63447;49.446;8.666;2023-01-29T06:50:01;10.13;;;5.22;;
74894;SDS011;63447;49.446;8.666;2023-01-29T06:52:31;10.10;;;4.93;;
74894;SDS011;63447;49.446;8.666;2023-01-29T06:54:59;14.55;;;7.00;;
74894;SDS011;63447;49.446;8.666;2023-01-29T06:57:27;13.68;;;6.68;;
74894;SDS011;63447;49.446;8.666;2023-01-29T06:59:53;11.75;;;5.93;;
74894;SDS011;63447;49.446;8.666;2023-01-29T07:02:22;11.68;;;5.45;;
74894;SDS011;63447;49.446;8.666;2023-01-29T07:04:50;9.50;;;5.25;;
74894;SDS011;63447;49.446;8.666;2023-01-29T07:07:20;10.63;;;5.15;;
74894;SDS011;63447;49.446;8.666;2023-01-29T07:09:48;7.60;;;4.43;;
74894;SDS011;63447;49.446;8.666;2023-01-29T07:12:13;9.50;;;4.37;;
74894;SDS011;63447;49.446;8.666;2023-01-29T07:14:41;8.10;;;4.28;;
74894;SDS011;63447;49.446;8.666;2023-01-29T07:17:08;7.55;;;3.50;;
74894;SDS011;63447;49.446;8.666;2023-01-29T07:19:36;6.93;;;3.60;;
74894;SDS011;63447;49.446;8.666;2023-01-29T07:22:04;8.43;;;3.92;;
74894;SDS011;63447;49.446;8.666;2023-01-29T07:24:30;8.60;;;4.50;;
74894;SDS011;63447;49.446;8.666;2023-01-29T07:26:59;8.00;;;4.20;;
74894;SDS011;63447;49.446;8.666;2023-01-29T07:29:29;9.02;;;4.75;;
74894;SDS011;63447;49.446;8.666;2023-01-29T07:31:59;7.85;;;4.53;;
74894;SDS011;63447;49.446;8.666;2023-01-29T07:34:26;10.23;;;5.80;;
74894;SDS011;63447;49.446;8.666;2023-01-29T07:36:52;9.90;;;4.93;;
74894;SDS011;63447;49.446;8.666;2023-01-29T07:39:23;11.95;;;6.15;;
74894;SDS011;63447;49.446;8.666;2023-01-29T07:41:51;12.20;;;6.65;;
74894;SDS011;63447;49.446;8.666;2023-01-29T07:44:16;11.63;;;6.07;;
74894;SDS011;63447;49.446;8.666;2023-01-29T07:46:41;11.00;;;5.97;;
74894;SDS011;63447;49.446;8.666;2023-01-29T07:49:07;12.10;;;5.67;;
74894;SDS011;63447;49.446;8.666;2023-01-29T07:51:34;11.80;;;5.35;;
74894;SDS011;63447;49.446;8.666;2023-01-29T07:54:00;11.67;;;5.53;;
74894;SDS011;63447;49.446;8.666;2023-01-29T07:56:25;10.45;;;5.25;;
74894;SDS011;63447;49.446;8.666;2023-01-29T07:58:52;9.93;;;5.65;;
74894;SDS011;63447;49.446;8.666;2023-01-29T08:01:18;10.40;;;5.20;;
74894;SDS011;63447;49.446;8.666;2023-01-29T08:03:46;14.18;;;7.82;;
74894;SDS011;63447;49.446;8.666;2023-01-29T08:06:11;13.63;;;7.63;;
74894;SDS011;63447;49.446;8.666;2023-01-29T08:08:36;10.43;;;6.03;;
74894;SDS011;63447;49.446;8.666;2023-01-29T08:11:07;9.57;;;5.80;;
74894;SDS011;63447;49.446;8.666;2023-01-29T08:13:32;9.82;;;5.82;;
74894;SDS011;63447;49.446;8.666;2023-01-29T08:15:59;10.05;;;5.30;;
74894;SDS011;63447;49.446;8.666;2023-01-29T08:18:28;10.90;;;5.30;;
74894;SDS011;63447;49.446;8.666;2023-01-29T08:21:00;11.50;;;5.28;;
74894;SDS011;63447;49.446;8.666;2023-01-29T08:23:26;9.20;;;4.80;;
74894;SDS011;63447;49.446;8.666;2023-01-29T08:25:51;8.77;;;5.03;;
74894;SDS011;63447;49.446;8.666;2023-01-29T08:28:16;10.73;;;5.67;;
74894;SDS011;63447;49.446;8.666;2023-01-29T08:30:44;12.98;;;6.22;;
74894;SDS011;63447;49.446;8.666;2023-01-29T08:33:11;11.48;;;6.68;;
74894;SDS011;63447;49.446;8.666;2023-01-29T08:35:40;12.43;;;6.55;;
74894;SDS011;63447;49.446;8.666;2023-01-29T08:38:05;10.67;;;5.93;;
74894;SDS011;63447;49.446;8.666;2023-01-29T08:40:34;10.23;;;6.10;;
74894;SDS011;63447;49.446;8.666;2023-01-29T08:43:05;14.50;;;5.82;;
74894;SDS011;63447;49.446;8.666;2023-01-29T08:45:34;9.70;;;5.50;;
74894;SDS011;63447;49.446;8.666;2023-01-29T08:48:02;8.98;;;5.35;;
74894;SDS011;63447;49.446;8.666;2023-01-29T08:50:30;8.80;;;5.20;;
74894;SDS011;63447;49.446;8.666;2023-01-29T08:55:23;10.90;;;5.38;;
74894;SDS011;63447;49.446;8.666;2023-01-29T08:57:48;10.95;;;5.80;;
74894;SDS011;63447;49.446;8.666;2023-01-29T09:00:14;11.77;;;6.00;;
74894;SDS011;63447;49.446;8.666;2023-01-29T09:02:39;10.90;;;6.25;;
74894;SDS011;63447;49.446;8.666;2023-01-29T09:05:05;8.82;;;5.25;;
74894;SDS011;63447;49.446;8.666;2023-01-29T09:07:38;10.18;;;5.85;;
74894;SDS011;63447;49.446;8.666;2023-01-29T09:10:06;10.80;;;5.32;;
74894;SDS011;63447;49.446;8.666;2023-01-29T09:12:32;10.80;;;5.35;;
74894;SDS011;63447;49.446;8.666;2023-01-29T09:14:57;9.27;;;4.80;;
74894;SDS011;63447;49.446;8.666;2023-01-29T09:17:23;8.43;;;4.37;;
74894;SDS011;63447;49.446;8.666;2023-01-29T09:19:52;7.90;;;4.47;;
74894;SDS011;63447;49.446;8.666;2023-01-29T09:22:20;9.23;;;4.90;;
74894;SDS011;63447;49.446;8.666;2023-01-29T09:24:46;8.80;;;4.70;;
74894;SDS011;63447;49.446;8.666;2023-01-29T09:27:13;9.60;;;4.78;;
74894;SDS011;63447;49.446;8.666;2023-01-29T09:29:39;10.00;;;5.63;;
74894;SDS011;63447;49.446;8.666;2023-01-29T09:32:06;10.50;;;5.70;;
74894;SDS011;63447;49.446;8.666;2023-01-29T09:34:32;12.80;;;6.85;;
74894;SDS011;63447;49.446;8.666;2023-01-29T09:36:58;13.63;;;6.57;;
74894;SDS011;63447;49.446;8.666;2023-01-29T09:39:23;11.60;;;6.23;;
74894;SDS011;63447;49.446;8.666;2023-01-29T09:41:55;11.35;;;6.10;;
74894;SDS011;63447;49.446;8.666;2023-01-29T09:49:51;11.15;;;5.25;;
74894;SDS011;63447;49.446;8.666;2023-01-29T09:55:04;9.18;;;5.20;;
74894;SDS011;63447;49.446;8.666;2023-01-29T10:00:15;11.30;;;5.82;;
74894;SDS011;63447;49.446;8.666;2023-01-29T10:11:20;11.00;;;5.53;;
74894;SDS011;63447;49.446;8.666;2023-01-29T10:13:59;11.43;;;6.00;;
74894;SDS011;63447;49.446;8.666;2023-01-29T10:25:09;11.52;;;5.78;;
74894;SDS011;63447;49.446;8.666;2023-01-29T10:27:38;14.35;;;7.03;;
74894;SDS011;63447;49.446;8.666;2023-01-29T10:30:06;13.95;;;6.57;;
74894;SDS011;63447;49.446;8.666;2023-01-29T10:32:44;10.65;;;5.82;;
74894;SDS011;63447;49.446;8.666;2023-01-29T10:37:46;11.43;;;6.18;;
74894;SDS011;63447;49.446;8.666;2023-01-29T10:40:22;12.43;;;6.50;;
74894;SDS011;63447;49.446;8.666;2023-01-29T10:43:00;11.93;;;6.10;;
74894;SDS011;63447;49.446;8.666;2023-01-29T10:45:53;14.63;;;6.50;;
74894;SDS011;63447;49.446;8.666;2023-01-29T10:48:39;12.13;;;6.88;;
74894;SDS011;63447;49.446;8.666;2023-01-29T10:51:29;12.88;;;6.78;;
74894;SDS011;63447;49.446;8.666;2023-01-29T11:02:15;18.02;;;7.82;;
74894;SDS011;63447;49.446;8.666;2023-01-29T11:04:48;13.35;;;6.95;;
74894;SDS011;63447;49.446;8.666;2023-01-29T11:07:16;13.98;;;7.55;;
74894;SDS011;63447;49.446;8.666;2023-01-29T11:09:51;12.85;;;6.70;;
74894;SDS011;63447;49.446;8.666;2023-01-29T11:12:22;14.52;;;7.75;;
74894;SDS011;63447;49.446;8.666;2023-01-29T11:17:28;15.85;;;8.63;;
74894;SDS011;63447;49.446;8.666;2023-01-29T11:19:56;14.82;;;7.30;;
74894;SDS011;63447;49.446;8.666;2023-01-29T11:25:08;13.73;;;7.13;;
74894;SDS011;63447;49.446;8.666;2023-01-29T11:27:46;14.27;;;7.55;;
74894;SDS011;63447;49.446;8.666;2023-01-29T11:30:32;13.20;;;7.70;;
74894;SDS011;63447;49.446;8.666;2023-01-29T11:35:49;14.23;;;7.80;;
74894;SDS011;63447;49.446;8.666;2023-01-29T11:38:23;13.63;;;7.82;;
74894;SDS011;63447;49.446;8.666;2023-01-29T11:40:49;13.20;;;7.50;;
74894;SDS011;63447;49.446;8.666;2023-01-29T11:45:56;14.63;;;8.30;;
74894;SDS011;63447;49.446;8.666;2023-01-29T11:48:34;15.15;;;8.05;;
74894;SDS011;63447;49.446;8.666;2023-01-29T11:51:06;15.27;;;7.95;;
74894;SDS011;63447;49.446;8.666;2023-01-29T11:53:35;14.65;;;7.90;;
74894;SDS011;63447;49.446;8.666;2023-01-29T11:56:21;14.25;;;8.15;;
74894;SDS011;63447;49.446;8.666;2023-01-29T11:59:00;13.43;;;7.30;;
74894;SDS011;63447;49.446;8.666;2023-01-29T12:01:36;13.27;;;7.47;;
74894;SDS011;63447;49.446;8.666;2023-01-29T12:07:02;11.75;;;6.90;;
74894;SDS011;63447;49.446;8.666;2023-01-29T12:09:27;11.90;;;7.25;;
74894;SDS011;63447;49.446;8.666;2023-01-29T12:11:54;14.05;;;8.10;;
74894;SDS011;63447;49.446;8.666;2023-01-29T12:16:58;14.45;;;8.40;;
74894;SDS011;63447;49.446;8.666;2023-01-29T12:22:04;15.65;;;8.48;;
74894;SDS011;63447;49.446;8.666;2023-01-29T12:27:21;14.57;;;7.73;;
74894;SDS011;63447;49.446;8.666;2023-01-29T12:30:04;12.45;;;7.30;;
74894;SDS011;63447;49.446;8.666;2023-01-29T12:33:08;13.27;;;7.63;;
74894;SDS011;63447;49.446;8.666;2023-01-29T12:35:52;13.40;;;8.30;;
74894;SDS011;63447;49.446;8.666;2023-01-29T12:38:25;14.35;;;7.88;;
74894;SDS011;63447;49.446;8.666;2023-01-29T12:40:56;12.53;;;7.53;;
74894;SDS011;63447;49.446;8.666;2023-01-29T12:46:07;13.43;;;7.45;;
74894;SDS011;63447;49.446;8.666;2023-01-29T12:48:45;12.90;;;7.78;;
74894;SDS011;63447;49.446;8.666;2023-01-29T12:51:18;14.65;;;8.10;;
74894;SDS011;63447;49.446;8.666;2023-01-29T12:54:08;12.40;;;7.50;;
74894;SDS011;63447;49.446;8.666;2023-01-29T12:56:43;13.45;;;7.63;;
74894;SDS011;63447;49.446;8.666;2023-01-29T12:59:14;14.77;;;8.65;;
74894;SDS011;63447;49.446;8.666;2023-01-29T13:02:19;13.13;;;7.85;;
74894;SDS011;63447;49.446;8.666;2023-01-29T13:04:56;12.95;;;7.90;;
74894;SDS011;63447;49.446;8.666;2023-01-29T13:07:29;12.68;;;7.57;;
74894;SDS011;63447;49.446;8.666;2023-01-29T13:10:09;13.05;;;7.55;;
74894;SDS011;63447;49.446;8.666;2023-01-29T13:12:38;13.95;;;7.35;;
74894;SDS011;63447;49.446;8.666;2023-01-29T13:15:20;11.70;;;6.85;;
74894;SDS011;63447;49.446;8.666;2023-01-29T13:17:54;13.10;;;7.50;;
74894;SDS011;63447;49.446;8.666;2023-01-29T13:20:23;13.40;;;7.63;;
74894;SDS011;63447;49.446;8.666;2023-01-29T13:22:53;13.05;;;7.45;;
74894;SDS011;63447;49.446;8.666;2023-01-29T13:25:27;14.73;;;8.00;;
74894;SDS011;63447;49.446;8.666;2023-01-29T13:27:52;13.63;;;7.37;;
74894;SDS011;63447;49.446;8.666;2023-01-29T13:30:24;12.68;;;7.50;;
74894;SDS011;63447;49.446;8.666;2023-01-29T13:32:53;13.80;;;8.02;;
74894;SDS011;63447;49.446;8.666;2023-01-29T13:35:32;13.80;;;7.80;;
74894;SDS011;63447;49.446;8.666;2023-01-29T13:38:03;12.88;;;7.00;;
74894;SDS011;63447;49.446;8.666;2023-01-29T13:40:31;13.80;;;7.30;;
74894;SDS011;63447;49.446;8.666;2023-01-29T13:42:58;14.50;;;7.78;;
74894;SDS011;63447;49.446;8.666;2023-01-29T13:45:32;12.73;;;7.85;;
74894;SDS011;63447;49.446;8.666;2023-01-29T13:48:33;12.40;;;6.97;;
74894;SDS011;63447;49.446;8.666;2023-01-29T13:50:54;14.02;;;7.80;;
74894;SDS011;63447;49.446;8.666;2023-01-29T13:55:51;13.98;;;7.95;;
74894;SDS011;63447;49.446;8.666;2023-01-29T13:58:50;12.52;;;7.80;;
74894;SDS011;63447;49.446;8.666;2023-01-29T14:01:02;14.25;;;8.20;;
74894;SDS011;63447;49.446;8.666;2023-01-29T14:03:41;14.07;;;7.95;;
74894;SDS011;63447;49.446;8.666;2023-01-29T14:06:08;12.90;;;7.78;;
74894;SDS011;63447;49.446;8.666;2023-01-29T14:08:37;15.32;;;8.57;;
74894;SDS011;63447;49.446;8.666;2023-01-29T14:13:40;12.90;;;7.38;;
74894;SDS011;63447;49.446;8.666;2023-01-29T14:18:47;13.67;;;7.30;;
74894;SDS011;63447;49.446;8.666;2023-01-29T14:21:20;13.50;;;7.10;;
74894;SDS011;63447;49.446;8.666;2023-01-29T14:23:52;13.60;;;7.40;;
74894;SDS011;63447;49.446;8.666;2023-01-29T14:26:40;14.70;;;7.68;;
74894;SDS011;63447;49.446;8.666;2023-01-29T14:34:27;14.27;;;7.40;;
74894;SDS011;63447;49.446;8.666;2023-01-29T14:36:56;13.77;;;7.38;;
74894;SDS011;63447;49.446;8.666;2023-01-29T14:39:35;15.75;;;7.75;;
74894;SDS011;63447;49.446;8.666;2023-01-29T14:44:59;13.32;;;7.97;;
74894;SDS011;63447;49.446;8.666;2023-01-29T14:49:58;15.50;;;8.57;;
74894;SDS011;63447;49.446;8.666;2023-01-29T14:52:40;13.32;;;7.75;;
74894;SDS011;63447;49.446;8.666;2023-01-29T14:55:17;11.93;;;7.00;;
74894;SDS011;63447;49.446;8.666;2023-01-29T14:57:49;12.30;;;7.55;;
74894;SDS011;63447;49.446;8.666;2023-01-29T15:00:24;12.65;;;7.75;;
74894;SDS011;63447;49.446;8.666;2023-01-29T15:02:52;15.57;;;8.25;;
74894;SDS011;63447;49.446;8.666;2023-01-29T15:05:23;12.88;;;7.75;;
74894;SDS011;63447;49.446;8.666;2023-01-29T15:08:36;12.98;;;7.57;;
74894;SDS011;63447;49.446;8.666;2023-01-29T15:10:54;11.40;;;6.90;;
74894;SDS011;63447;49.446;8.666;2023-01-29T15:16:21;13.70;;;7.80;;
74894;SDS011;63447;49.446;8.666;2023-01-29T15:22:07;20.58;;;9.57;;
74894;SDS011;63447;49.446;8.666;2023-01-29T15:24:38;13.45;;;7.78;;
74894;SDS011;63447;49.446;8.666;2023-01-29T15:27:09;13.82;;;7.90;;
74894;SDS011;63447;49.446;8.666;2023-01-29T15:29:37;14.70;;;8.70;;
74894;SDS011;63447;49.446;8.666;2023-01-29T15:32:03;15.38;;;7.85;;
74894;SDS011;63447;49.446;8.666;2023-01-29T15:34:32;14.43;;;7.72;;
74894;SDS011;63447;49.446;8.666;2023-01-29T15:37:00;13.45;;;6.60;;
74894;SDS011;63447;49.446;8.666;2023-01-29T15:44:42;17.10;;;8.38;;
74894;SDS011;63447;49.446;8.666;2023-01-29T15:47:09;13.40;;;6.68;;
74894;SDS011;63447;49.446;8.666;2023-01-29T15:49:35;13.40;;;7.18;;
74894;SDS011;63447;49.446;8.666;2023-01-29T15:52:15;14.20;;;7.20;;
74894;SDS011;63447;49.446;8.666;2023-01-29T15:54:43;15.18;;;7.82;;
74894;SDS011;63447;49.446;8.666;2023-01-29T15:59:43;12.27;;;6.55;;
74894;SDS011;63447;49.446;8.666;2023-01-29T16:05:04;14.50;;;8.07;;
74894;SDS011;63447;49.446;8.666;2023-01-29T16:07:37;19.15;;;9.00;;
74894;SDS011;63447;49.446;8.666;2023-01-29T16:10:04;16.70;;;8.15;;
74894;SDS011;63447;49.446;8.666;2023-01-29T16:12:49;16.40;;;8.98;;
74894;SDS011;63447;49.446;8.666;2023-01-29T16:18:18;18.48;;;9.75;;
74894;SDS011;63447;49.446;8.666;2023-01-29T16:23:19;17.92;;;8.20;;
74894;SDS011;63447;49.446;8.666;2023-01-29T16:25:51;15.80;;;8.77;;
74894;SDS011;63447;49.446;8.666;2023-01-29T16:28:19;17.85;;;9.40;;
74894;SDS011;63447;49.446;8.666;2023-01-29T16:30:45;18.25;;;9.05;;
74894;SDS011;63447;49.446;8.666;2023-01-29T16:33:13;21.42;;;9.52;;
74894;SDS011;63447;49.446;8.666;2023-01-29T16:35:48;19.25;;;9.55;;
74894;SDS011;63447;49.446;8.666;2023-01-29T16:38:27;17.38;;;8.90;;
74894;SDS011;63447;49.446;8.666;2023-01-29T16:43:59;18.35;;;9.15;;
74894;SDS011;63447;49.446;8.666;2023-01-29T16:46:45;16.70;;;8.85;;
74894;SDS011;63447;49.446;8.666;2023-01-29T16:50:03;17.55;;;8.85;;
74894;SDS011;63447;49.446;8.666;2023-01-29T16:52:21;17.25;;;8.15;;
74894;SDS011;63447;49.446;8.666;2023-01-29T16:54:57;17.67;;;8.75;;
74894;SDS011;63447;49.446;8.666;2023-01-29T16:57:25;16.63;;;8.15;;
74894;SDS011;63447;49.446;8.666;2023-01-29T16:59:54;21.05;;;10.88;;
74894;SDS011;63447;49.446;8.666;2023-01-29T17:05:02;15.48;;;8.60;;
74894;SDS011;63447;49.446;8.666;2023-01-29T17:07:31;17.50;;;8.15;;
74894;SDS011;63447;49.446;8.666;2023-01-29T17:12:25;17.40;;;8.73;;
74894;SDS011;63447;49.446;8.666;2023-01-29T17:14:54;15.52;;;7.95;;
74894;SDS011;63447;49.446;8.666;2023-01-29T17:19:55;15.15;;;8.15;;
74894;SDS011;63447;49.446;8.666;2023-01-29T17:22:22;15.98;;;8.05;;
74894;SDS011;63447;49.446;8.666;2023-01-29T17:24:47;16.47;;;8.57;;
74894;SDS011;63447;49.446;8.666;2023-01-29T17:27:21;16.83;;;8.10;;
74894;SDS011;63447;49.446;8.666;2023-01-29T17:29:50;16.75;;;7.90;;
74894;SDS011;63447;49.446;8.666;2023-01-29T17:32:16;14.90;;;8.20;;
74894;SDS011;63447;49.446;8.666;2023-01-29T17:34:44;14.55;;;7.97;;
74894;SDS011;63447;49.446;8.666;2023-01-29T17:37:14;17.90;;;8.20;;
74894;SDS011;63447;49.446;8.666;2023-01-29T17:39:40;18.20;;;8.25;;
74894;SDS011;63447;49.446;8.666;2023-01-29T17:42:09;16.35;;;8.93;;
74894;SDS011;63447;49.446;8.666;2023-01-29T17:44:40;17.13;;;9.90;;
74894;SDS011;63447;49.446;8.666;2023-01-29T17:47:10;15.95;;;8.60;;
74894;SDS011;63447;49.446;8.666;2023-01-29T17:49:39;16.70;;;8.38;;
74894;SDS011;63447;49.446;8.666;2023-01-29T17:52:05;14.60;;;8.10;;
74894;SDS011;63447;49.446;8.666;2023-01-29T17:54:33;13.80;;;7.72;;
74894;SDS011;63447;49.446;8.666;2023-01-29T17:56:58;21.85;;;10.15;;
74894;SDS011;63447;49.446;8.666;2023-01-29T17:59:24;30.50;;;13.07;;
74894;SDS011;63447;49.446;8.666;2023-01-29T18:01:56;19.00;;;9.43;;
74894;SDS011;63447;49.446;8.666;2023-01-29T18:04:21;19.48;;;9.90;;
74894;SDS011;63447;49.446;8.666;2023-01-29T18:06:48;18.95;;;9.77;;
74894;SDS011;63447;49.446;8.666;2023-01-29T18:09:18;18.58;;;10.55;;
74894;SDS011;63447;49.446;8.666;2023-01-29T18:11:46;18.40;;;9.40;;
74894;SDS011;63447;49.446;8.666;2023-01-29T18:14:15;16.98;;;9.55;;
74894;SDS011;63447;49.446;8.666;2023-01-29T18:16:41;17.92;;;8.60;;